Time;durP1;ratioP1;P1;durP2;ratioP2;P2;SDS_P1;SDS_P2;PMS_P1;PMS_P2;Temp;Humidity;BMP_temperature;BMP_pressure;BME280_temperature;BME280_humidity;BME280_pressure;Samples;Min_cycle;Max_cycle;Signal;HPM_P1;HPM_P2
2022/01/31 00:00:10;;;;;;;347.38;87.38;;;;;;;5.30;61.38;99430.97;340959;28;1772;-68
2022/01/31 00:00:20;;;;;;;345.73;86.53;;;;;;;5.30;61.46;99431.81;342158;28;1415;-68
2022/01/31 00:00:30;;;;;;;347.88;84.53;;;;;;;5.30;61.41;99428.38;341170;29;1135;-68
2022/01/31 00:00:41;;;;;;;347.97;85.37;;;;;;;5.31;61.56;99435.28;341109;28;1514;-68
2022/01/31 00:00:51;;;;;;;350.23;87.00;;;;;;;5.30;61.30;99430.97;344180;28;1463;-68
2022/01/31 00:01:02;;;;;;;348.03;87.07;;;;;;;5.31;61.38;99427.47;342444;28;862;-68
2022/01/31 00:01:12;;;;;;;344.65;86.88;;;;;;;5.30;61.27;99426.63;339517;29;1587;-69
2022/01/31 00:01:23;;;;;;;346.63;84.47;;;;;;;5.31;61.32;99430.94;341171;28;1585;-68
2022/01/31 00:01:34;;;;;;;351.45;84.65;;;;;;;5.32;61.34;99427.44;341019;28;1520;-68
2022/01/31 00:01:44;;;;;;;352.00;82.90;;;;;;;5.31;61.39;99430.94;342404;28;1570;-68
2022/01/31 00:01:55;;;;;;;349.75;82.30;;;;;;;5.33;61.33;99431.75;342426;28;1428;-68
2022/01/31 00:02:05;;;;;;;342.67;81.07;;;;;;;5.31;61.51;99425.75;339739;28;1444;-67
2022/01/31 00:02:15;;;;;;;340.83;80.32;;;;;;;5.29;61.42;99432.72;342483;28;897;-68
2022/01/31 00:02:26;;;;;;;336.63;79.73;;;;;;;5.29;61.13;99426.66;343410;28;1447;-68
2022/01/31 00:02:36;;;;;;;338.20;77.57;;;;;;;5.28;61.53;99430.16;342404;28;1518;-68
2022/01/31 00:02:47;;;;;;;341.67;77.60;;;;;;;5.31;61.19;99422.28;342536;28;791;-68
2022/01/31 00:02:57;;;;;;;343.90;79.65;;;;;;;5.32;61.47;99426.59;340996;28;1455;-68
2022/01/31 00:03:08;;;;;;;346.37;83.47;;;;;;;5.32;61.50;99429.19;341068;28;1452;-68
2022/01/31 00:03:18;;;;;;;343.75;83.57;;;;;;;5.32;61.27;99427.44;338490;29;811;-68
2022/01/31 00:03:30;;;;;;;343.53;82.43;;;;;;;5.32;61.29;99427.44;342471;28;1335;-67
2022/01/31 00:03:40;;;;;;;339.77;83.05;;;;;;;5.32;61.07;99421.41;343645;28;1432;-67
2022/01/31 00:03:51;;;;;;;338.25;82.88;;;;;;;5.31;60.94;99420.56;343694;28;1447;-67
2022/01/31 00:04:01;;;;;;;336.93;83.47;;;;;;;5.31;61.17;99430.09;343874;28;794;-69
2022/01/31 00:04:12;;;;;;;338.15;81.63;;;;;;;5.31;61.01;99420.56;343766;28;1364;-69
2022/01/31 00:04:22;;;;;;;343.37;81.07;;;;;;;5.30;60.93;99418.00;343755;28;1403;-69
2022/01/31 00:04:33;;;;;;;340.85;80.10;;;;;;;5.30;60.91;99420.59;343728;28;1346;-69
2022/01/31 00:04:43;;;;;;;340.37;79.77;;;;;;;5.29;60.75;99416.28;342305;28;1468;-69
2022/01/31 00:04:53;;;;;;;339.38;80.20;;;;;;;5.31;60.90;99430.09;342386;28;1439;-69
2022/01/31 00:05:04;;;;;;;344.63;80.87;;;;;;;5.32;60.76;99418.81;342345;28;1491;-69
2022/01/31 00:05:14;;;;;;;345.63;80.93;;;;;;;5.30;60.91;99423.19;342415;28;842;-69
2022/01/31 00:05:25;;;;;;;343.20;80.67;;;;;;;5.30;60.91;99415.41;341711;28;1447;-69
2022/01/31 00:05:35;;;;;;;340.88;82.05;;;;;;;5.31;60.88;99422.28;341532;28;1420;-69
2022/01/31 00:05:46;;;;;;;346.70;81.67;;;;;;;5.31;60.58;99420.56;342552;28;889;-68
2022/01/31 00:05:56;;;;;;;352.13;80.13;;;;;;;5.30;60.90;99423.19;342382;28;1487;-68
2022/01/31 00:06:07;;;;;;;352.77;79.50;;;;;;;5.29;60.60;99411.09;342471;28;1428;-68
2022/01/31 00:06:17;;;;;;;342.17;78.25;;;;;;;5.32;60.60;99421.41;342450;28;1171;-69
2022/01/31 00:06:27;;;;;;;335.97;78.30;;;;;;;5.32;60.64;99417.06;342927;28;1439;-69
2022/01/31 00:06:38;;;;;;;334.80;78.97;;;;;;;5.33;60.58;99420.53;344268;28;1444;-68
2022/01/31 00:06:49;;;;;;;337.07;80.50;;;;;;;5.35;60.74;99418.75;343704;28;1475;-68
2022/01/31 00:06:59;;;;;;;337.25;80.57;;;;;;;5.37;60.43;99413.53;343854;28;853;-68
2022/01/31 00:07:10;;;;;;;339.13;80.20;;;;;;;5.34;60.44;99425.69;343773;28;1475;-68
2022/01/31 00:07:21;;;;;;;339.25;79.90;;;;;;;5.34;60.48;99422.22;344058;28;1471;-69
2022/01/31 00:07:31;;;;;;;336.83;78.32;;;;;;;5.34;60.57;99411.84;342376;28;1279;-70
2022/01/31 00:07:42;;;;;;;337.27;78.33;;;;;;;5.35;60.56;99416.16;339816;29;1575;-70
2022/01/31 00:07:52;;;;;;;340.10;78.32;;;;;;;5.35;60.14;99416.16;340004;29;2010;-70
2022/01/31 00:08:03;;;;;;;340.03;78.87;;;;;;;5.37;60.10;99414.38;341120;29;912;-70
2022/01/31 00:08:20;;;;;;;343.10;78.57;;;;;;;5.39;60.19;99416.94;341088;29;1650;-70
2022/01/31 00:08:31;;;;;;;340.60;79.05;;;;;;;5.39;60.28;99407.41;341147;29;1071;-70
2022/01/31 00:08:42;;;;;;;334.90;77.97;;;;;;;5.41;59.95;99415.16;342210;28;1341;-70
2022/01/31 00:08:53;;;;;;;341.85;80.03;;;;;;;5.39;60.01;99407.41;342368;28;1456;-70
2022/01/31 00:09:03;;;;;;;342.17;79.73;;;;;;;5.38;59.80;99410.03;342561;28;802;-70
2022/01/31 00:09:16;;;;;;;340.08;79.55;;;;;;;5.37;59.70;99409.19;342458;28;865;-70
2022/01/31 00:09:26;;;;;;;336.04;78.26;;;;;;;5.39;59.82;99407.41;342365;28;1431;-69
2022/01/31 00:09:38;;;;;;;349.67;80.60;;;;;;;5.40;59.80;99409.13;342994;28;1487;-69
2022/01/31 00:09:48;;;;;;;353.13;84.72;;;;;;;5.39;59.83;99402.22;341755;28;1532;-69
2022/01/31 00:09:59;;;;;;;349.87;85.93;;;;;;;5.41;59.74;99405.63;342326;28;1294;-69
2022/01/31 00:10:12;;;;;;;347.58;87.00;;;;;;;5.41;59.93;99410.81;342312;28;1520;-69
2022/01/31 00:10:30;;;;;;;350.52;83.20;;;;;;;5.41;59.52;99403.03;341722;28;1436;-69
2022/01/31 00:10:40;;;;;;;347.70;82.03;;;;;;;5.40;59.58;99401.34;342382;28;1439;-69
2022/01/31 00:10:51;;;;;;;346.95;83.70;;;;;;;5.43;59.74;99405.59;339796;29;1428;-69
2022/01/31 00:11:02;;;;;;;348.00;82.28;;;;;;;5.42;59.44;99402.16;338583;29;930;-69
2022/01/31 00:11:12;;;;;;;348.93;82.70;;;;;;;5.43;59.63;99403.00;339674;29;1472;-69
2022/01/31 00:11:23;;;;;;;346.65;82.15;;;;;;;5.43;59.23;99398.66;342473;28;1463;-69
2022/01/31 00:11:41;;;;;;;344.45;83.03;;;;;;;5.44;59.46;99399.53;340831;28;1318;-69
2022/01/31 00:12:02;;;;;;;343.40;82.55;;;;;;;5.45;59.36;99411.59;341076;28;1404;-69
2022/01/31 00:12:16;;;;;;;342.48;80.20;;;;;;;5.45;59.45;99411.59;342232;28;1440;-68
2022/01/31 00:12:31;;;;;;;347.58;82.60;;;;;;;5.45;59.25;99403.81;339792;29;1487;-68
2022/01/31 00:12:57;;;;;;;351.55;85.85;;;;;;;5.45;59.52;99412.47;342203;28;1542;-69
2022/01/31 00:13:12;;;;;;;343.42;82.15;;;;;;;5.45;59.69;99406.41;342404;28;1462;-69
2022/01/31 00:13:34;;;;;;;342.25;82.53;;;;;;;5.45;59.59;99406.41;345081;28;1154;-69
2022/01/31 00:13:55;;;;;;;342.10;83.95;;;;;;;5.42;59.79;99399.56;345181;28;752;-67
2022/01/31 00:14:14;;;;;;;339.58;83.28;;;;;;;5.42;60.08;99409.94;342630;28;1558;-68
2022/01/31 00:14:46;;;;;;;342.58;83.95;;;;;;;5.42;59.49;99412.53;342982;28;1427;-68
2022/01/31 00:15:02;;;;;;;349.55;83.80;;;;;;;5.42;59.99;99406.50;343158;28;1133;-68
2022/01/31 00:15:12;;;;;;;349.30;84.90;;;;;;;5.40;59.91;99398.72;344014;28;1462;-68
2022/01/31 00:15:22;;;;;;;348.10;85.30;;;;;;;5.37;60.16;99404.00;345164;28;1446;-68
2022/01/31 00:15:42;;;;;;;345.48;84.65;;;;;;;5.35;60.54;99404.03;342502;28;857;-68
2022/01/31 00:15:55;;;;;;;344.45;81.85;;;;;;;5.35;60.45;99400.59;340856;28;1534;-69
2022/01/31 00:16:07;;;;;;;348.10;82.45;;;;;;;5.36;60.22;99397.09;342249;28;1293;-69
2022/01/31 00:16:24;;;;;;;347.83;83.85;;;;;;;5.33;60.42;99405.81;341112;28;940;-67
2022/01/31 00:16:34;;;;;;;343.83;83.65;;;;;;;5.32;60.82;99400.66;340998;29;1129;-68
2022/01/31 00:16:45;;;;;;;341.73;82.10;;;;;;;5.28;60.65;99391.22;341165;28;1586;-68
2022/01/31 00:16:55;;;;;;;341.63;82.22;;;;;;;5.27;60.75;99399.91;341125;28;1445;-68
2022/01/31 00:17:06;;;;;;;344.63;83.13;;;;;;;5.27;60.67;99394.72;343647;28;1581;-68
2022/01/31 00:17:16;;;;;;;346.05;82.32;;;;;;;5.26;60.66;99403.38;342437;28;1036;-68
2022/01/31 00:17:27;;;;;;;348.42;82.05;;;;;;;5.28;60.93;99404.19;342326;28;1526;-68
2022/01/31 00:17:37;;;;;;;344.93;81.40;;;;;;;5.30;60.91;99407.63;342384;28;1523;-69
2022/01/31 00:17:48;;;;;;;342.90;80.57;;;;;;;5.29;60.96;99411.09;341122;28;1335;-69
2022/01/31 00:17:58;;;;;;;345.30;81.33;;;;;;;5.29;60.76;99411.09;342404;28;1371;-69
2022/01/31 00:18:09;;;;;;;347.20;81.82;;;;;;;5.29;60.82;99411.09;342339;28;1467;-69
2022/01/31 00:18:19;;;;;;;348.03;84.20;;;;;;;5.30;61.33;99405.88;341241;29;861;-69
2022/01/31 00:18:29;;;;;;;345.10;84.88;;;;;;;5.30;61.16;99402.44;342246;28;1531;-69
2022/01/31 00:18:40;;;;;;;347.47;85.63;;;;;;;5.27;61.06;99402.50;341843;28;1515;-69
2022/01/31 00:18:51;;;;;;;347.23;85.30;;;;;;;5.27;61.16;99402.50;339863;29;1460;-69
2022/01/31 00:19:01;;;;;;;346.33;85.00;;;;;;;5.27;60.55;99402.50;341039;29;1217;-68
2022/01/31 00:19:11;;;;;;;345.50;83.20;;;;;;;5.25;61.34;99404.28;340974;29;1514;-68
2022/01/31 00:19:22;;;;;;;346.50;81.23;;;;;;;5.25;61.15;99399.09;341084;28;1524;-68
2022/01/31 00:19:32;;;;;;;348.88;81.65;;;;;;;5.25;60.90;99407.72;339823;29;818;-68
2022/01/31 00:19:43;;;;;;;345.17;83.13;;;;;;;5.24;61.43;99402.56;342314;28;1566;-68
2022/01/31 00:19:53;;;;;;;345.43;84.17;;;;;;;5.24;61.47;99407.75;341008;28;1241;-68
2022/01/31 00:20:04;;;;;;;345.35;84.93;;;;;;;5.24;61.06;99402.56;341136;29;907;-68
2022/01/31 00:20:15;;;;;;;344.48;84.43;;;;;;;5.22;61.42;99409.53;338475;29;1125;-68
2022/01/31 00:20:25;;;;;;;348.90;84.70;;;;;;;5.22;61.37;99409.53;341078;28;1686;-68
2022/01/31 00:20:35;;;;;;;348.07;82.77;;;;;;;5.23;61.37;99408.63;341046;28;1550;-68
2022/01/31 00:20:46;;;;;;;350.63;83.82;;;;;;;5.24;61.55;99407.75;341173;29;798;-67
2022/01/31 00:20:56;;;;;;;343.60;82.50;;;;;;;5.25;61.24;99404.28;341988;28;1471;-68
2022/01/31 00:21:07;;;;;;;348.88;83.25;;;;;;;5.23;61.41;99404.31;344491;28;1418;-68
2022/01/31 00:21:17;;;;;;;348.50;82.17;;;;;;;5.24;61.52;99408.59;342496;28;814;-68
2022/01/31 00:21:28;;;;;;;351.13;84.37;;;;;;;5.26;61.31;99404.25;341991;28;1527;-68
2022/01/31 00:21:39;;;;;;;347.15;84.97;;;;;;;5.28;61.07;99404.19;342244;28;1510;-68
2022/01/31 00:21:49;;;;;;;345.85;85.90;;;;;;;5.27;61.28;99415.47;342501;28;932;-68
2022/01/31 00:21:59;;;;;;;342.73;84.00;;;;;;;5.25;61.67;99402.53;339782;29;1638;-68
2022/01/31 00:22:12;;;;;;;343.97;85.07;;;;;;;5.26;61.45;99405.97;340363;28;1452;-68
2022/01/31 00:22:22;;;;;;;341.60;83.80;;;;;;;5.24;61.20;99402.56;343696;28;1475;-68
2022/01/31 00:22:33;;;;;;;340.77;82.97;;;;;;;5.22;61.49;99409.53;343747;28;1519;-68
2022/01/31 00:22:43;;;;;;;341.97;83.03;;;;;;;5.21;61.38;99413.00;342028;28;1535;-68
2022/01/31 00:22:53;;;;;;;342.23;82.63;;;;;;;5.23;61.23;99408.63;341057;28;1471;-68
2022/01/31 00:23:04;;;;;;;345.05;82.30;;;;;;;5.23;61.61;99408.63;341184;29;869;-68
2022/01/31 00:23:14;;;;;;;343.60;81.27;;;;;;;5.23;61.52;99406.91;342239;28;1637;-67
2022/01/31 00:23:25;;;;;;;345.48;83.68;;;;;;;5.23;61.41;99406.03;342363;28;1447;-67
2022/01/31 00:23:35;;;;;;;346.02;84.28;;;;;;;5.24;61.36;99410.34;343544;28;1472;-68
2022/01/31 00:23:46;;;;;;;344.67;85.40;;;;;;;5.24;61.66;99403.41;343835;28;907;-68
2022/01/31 00:23:56;;;;;;;346.20;85.50;;;;;;;5.20;61.37;99401.78;342361;28;1448;-68
2022/01/31 00:24:06;;;;;;;346.10;88.07;;;;;;;5.18;61.31;99402.72;340064;28;1751;-68
2022/01/31 00:24:17;;;;;;;346.00;86.50;;;;;;;5.13;61.41;99402.84;342364;28;1321;-68
2022/01/31 00:24:27;;;;;;;345.88;85.60;;;;;;;5.13;61.81;99404.56;341506;28;1474;-68
2022/01/31 00:24:38;;;;;;;344.40;83.10;;;;;;;5.14;61.80;99411.47;342756;28;1431;-68
2022/01/31 00:24:49;;;;;;;349.95;84.93;;;;;;;5.14;61.56;99407.13;343817;28;874;-68
2022/01/31 00:24:59;;;;;;;349.33;86.32;;;;;;;5.13;61.57;99408.03;342215;28;1280;-68
2022/01/31 00:25:10;;;;;;;348.63;85.50;;;;;;;5.13;61.50;99408.03;343070;28;1320;-68
2022/01/31 00:25:20;;;;;;;341.47;83.50;;;;;;;5.15;61.51;99406.25;343585;28;1419;-68
2022/01/31 00:25:31;;;;;;;345.67;83.35;;;;;;;5.17;61.44;99406.22;343836;28;935;-68
2022/01/31 00:25:41;;;;;;;347.27;83.27;;;;;;;5.18;61.62;99405.31;343002;28;1510;-68
2022/01/31 00:25:51;;;;;;;348.08;84.30;;;;;;;5.17;61.44;99411.41;342581;28;1476;-68
2022/01/31 00:26:02;;;;;;;343.90;85.33;;;;;;;5.13;61.36;99409.75;343830;28;864;-68
2022/01/31 00:26:12;;;;;;;344.90;85.97;;;;;;;5.13;61.40;99413.22;341447;28;1479;-68
2022/01/31 00:26:23;;;;;;;344.93;84.07;;;;;;;5.11;61.40;99406.34;340123;29;1492;-68
2022/01/31 00:26:33;;;;;;;346.70;83.30;;;;;;;5.14;61.47;99406.28;340431;29;1089;-68
2022/01/31 00:26:44;;;;;;;351.70;84.67;;;;;;;5.12;61.59;99406.31;340902;28;1449;-68
2022/01/31 00:26:54;;;;;;;356.30;85.38;;;;;;;5.14;61.44;99407.13;341066;28;1550;-68
2022/01/31 00:27:06;;;;;;;355.50;84.40;;;;;;;5.15;61.34;99408.84;341223;29;834;-68
2022/01/31 00:27:16;;;;;;;356.85;83.68;;;;;;;5.18;61.02;99407.91;339894;29;821;-68
2022/01/31 00:27:26;;;;;;;362.30;86.07;;;;;;;5.20;61.19;99406.16;341822;28;1518;-68
2022/01/31 00:27:37;;;;;;;362.58;87.55;;;;;;;5.20;61.37;99408.75;342330;28;1512;-68
2022/01/31 00:27:47;;;;;;;356.93;88.47;;;;;;;5.19;61.43;99397.50;342586;28;945;-68
2022/01/31 00:27:58;;;;;;;348.20;87.00;;;;;;;5.22;61.04;99404.34;339411;29;1963;-68
2022/01/31 00:28:08;;;;;;;347.33;87.57;;;;;;;5.21;61.11;99413.88;339665;29;1570;-68
2022/01/31 00:28:18;;;;;;;348.10;88.03;;;;;;;5.20;60.64;99406.97;339843;29;1237;-68
2022/01/31 00:28:29;;;;;;;346.60;86.03;;;;;;;5.14;61.02;99403.69;343406;28;1499;-68
2022/01/31 00:28:39;;;;;;;346.20;85.13;;;;;;;5.14;61.24;99403.69;343703;28;1490;-68
2022/01/31 00:28:50;;;;;;;352.50;87.30;;;;;;;5.14;60.79;99401.09;342362;28;1510;-69
2022/01/31 00:29:00;;;;;;;356.70;88.53;;;;;;;5.13;61.04;99396.78;342426;28;920;-69
2022/01/31 00:29:11;;;;;;;365.53;90.63;;;;;;;5.14;60.62;99395.91;343050;28;1440;-68
2022/01/31 00:29:21;;;;;;;375.77;93.43;;;;;;;5.11;60.85;99407.19;342306;28;1475;-68
2022/01/31 00:29:31;;;;;;;373.07;93.77;;;;;;;5.13;61.04;99399.38;342461;28;801;-68
2022/01/31 00:29:42;;;;;;;356.25;89.28;;;;;;;5.14;60.84;99390.72;343755;28;1510;-68
2022/01/31 00:29:52;;;;;;;344.67;88.27;;;;;;;5.14;60.94;99404.53;343497;28;1322;-68
2022/01/31 00:30:04;;;;;;;344.13;87.68;;;;;;;5.14;60.82;99401.09;342373;28;1556;-68
2022/01/31 00:30:15;;;;;;;348.50;86.97;;;;;;;5.16;60.73;99388.94;342338;28;1515;-68
2022/01/31 00:30:25;;;;;;;343.77;81.75;;;;;;;5.15;60.73;99395.03;341615;28;1551;-68
2022/01/31 00:30:35;;;;;;;345.60;83.22;;;;;;;5.17;60.62;99395.84;342351;28;1270;-68
2022/01/31 00:30:46;;;;;;;342.40;85.17;;;;;;;5.17;60.59;99401.03;342393;28;1559;-68
2022/01/31 00:30:56;;;;;;;343.75;86.38;;;;;;;5.18;60.54;99402.72;339722;29;1424;-69
2022/01/31 00:31:07;;;;;;;342.33;85.47;;;;;;;5.19;60.69;99399.25;339567;29;1425;-68
2022/01/31 00:31:18;;;;;;;344.83;83.38;;;;;;;5.19;60.71;99392.31;341026;28;1259;-68
2022/01/31 00:31:29;;;;;;;343.52;82.03;;;;;;;5.19;60.50;99396.66;344800;28;1467;-68
2022/01/31 00:31:39;;;;;;;342.42;81.18;;;;;;;5.19;60.63;99401.84;343595;28;1494;-69
2022/01/31 00:31:49;;;;;;;341.10;80.67;;;;;;;5.20;60.36;99395.78;342399;28;1485;-68
2022/01/31 00:32:00;;;;;;;339.77;80.68;;;;;;;5.20;60.17;99395.78;340986;29;1646;-68
2022/01/31 00:32:10;;;;;;;341.43;81.47;;;;;;;5.20;60.24;99395.78;341114;29;1668;-68
2022/01/31 00:32:20;;;;;;;339.38;81.00;;;;;;;5.21;60.40;99392.25;339821;28;1279;-68
2022/01/31 00:32:31;;;;;;;339.80;81.03;;;;;;;5.18;60.46;99400.13;341244;28;1336;-68
2022/01/31 00:32:41;;;;;;;337.03;81.43;;;;;;;5.20;60.13;99398.38;338830;29;1488;-69
2022/01/31 00:32:52;;;;;;;336.30;82.22;;;;;;;5.20;60.06;99401.78;339724;29;1448;-69
2022/01/31 00:33:02;;;;;;;335.13;82.07;;;;;;;5.21;59.90;99395.69;342383;28;1221;-69
2022/01/31 00:33:13;;;;;;;335.83;80.85;;;;;;;5.23;60.09;99391.34;340976;29;1551;-69
2022/01/31 00:33:23;;;;;;;342.00;80.95;;;;;;;5.23;60.07;99393.94;341058;29;1429;-69
2022/01/31 00:33:34;;;;;;;344.50;81.87;;;;;;;5.23;59.71;99400.84;341182;29;806;-69
2022/01/31 00:33:44;;;;;;;349.15;84.55;;;;;;;5.24;59.71;99382.66;341081;29;1559;-69
2022/01/31 00:33:54;;;;;;;352.93;85.83;;;;;;;5.26;59.83;99388.66;341676;28;1442;-69
2022/01/31 00:34:06;;;;;;;362.77;89.07;;;;;;;5.26;59.59;99395.59;341186;29;817;-69
2022/01/31 00:34:16;;;;;;;375.83;92.78;;;;;;;5.26;59.86;99399.06;342546;28;953;-69
2022/01/31 00:34:26;;;;;;;383.00;96.27;;;;;;;5.27;59.76;99399.91;341770;28;1820;-69
2022/01/31 00:34:37;;;;;;;384.50;95.53;;;;;;;5.27;59.58;99392.13;341027;28;1495;-69
2022/01/31 00:34:47;;;;;;;378.40;92.73;;;;;;;5.28;59.59;99396.41;341223;28;806;-69
2022/01/31 00:34:58;;;;;;;379.48;93.00;;;;;;;5.28;59.47;99397.28;342398;28;770;-69
2022/01/31 00:35:09;;;;;;;374.47;92.87;;;;;;;5.28;59.49;99393.81;341012;29;1448;-69
2022/01/31 00:35:19;;;;;;;365.08;89.35;;;;;;;5.28;59.46;99391.22;341233;29;810;-69
2022/01/31 00:35:30;;;;;;;350.10;81.73;;;;;;;5.27;59.41;99395.56;340756;29;1456;-69
2022/01/31 00:35:40;;;;;;;344.63;79.40;;;;;;;5.28;59.66;99389.50;342323;28;1567;-69
2022/01/31 00:35:51;;;;;;;339.97;80.23;;;;;;;5.27;59.27;99392.97;339895;29;917;-69
2022/01/31 00:36:01;;;;;;;339.95;80.00;;;;;;;5.27;59.55;99382.59;343710;28;1650;-69
2022/01/31 00:36:12;;;;;;;337.97;78.90;;;;;;;5.27;59.20;99392.13;343570;28;1285;-69
2022/01/31 00:36:22;;;;;;;339.83;80.40;;;;;;;5.27;59.44;99390.38;342502;28;850;-69
2022/01/31 00:36:32;;;;;;;339.93;82.33;;;;;;;5.27;59.75;99394.72;342352;28;1475;-69
2022/01/31 00:36:43;;;;;;;344.75;83.82;;;;;;;5.29;59.52;99401.56;342439;28;1503;-69
2022/01/31 00:36:54;;;;;;;345.47;82.73;;;;;;;5.31;59.33;99401.53;340997;28;1511;-69
2022/01/31 00:37:04;;;;;;;345.20;81.47;;;;;;;5.29;59.70;99401.56;341153;29;853;-69
2022/01/31 00:37:15;;;;;;;342.83;80.68;;;;;;;5.31;59.40;99394.63;342230;28;1427;-69
2022/01/31 00:37:25;;;;;;;340.70;79.00;;;;;;;5.31;59.32;99391.16;342378;28;1507;-69
2022/01/31 00:37:36;;;;;;;347.65;83.50;;;;;;;5.31;59.20;99402.41;342455;28;1043;-69
2022/01/31 00:37:46;;;;;;;347.23;83.17;;;;;;;5.31;59.47;99394.63;342246;28;1444;-69
2022/01/31 00:37:56;;;;;;;350.55;85.05;;;;;;;5.32;59.30;99400.66;342414;28;1574;-69
2022/01/31 00:38:07;;;;;;;346.03;85.00;;;;;;;5.32;59.09;99388.53;343913;28;982;-69
2022/01/31 00:38:17;;;;;;;360.40;88.65;;;;;;;5.32;59.26;99395.47;339841;29;918;-69
2022/01/31 00:38:28;;;;;;;368.40;89.33;;;;;;;5.30;59.06;99386.88;339650;29;1547;-69
2022/01/31 00:38:38;;;;;;;367.85;86.03;;;;;;;5.30;59.18;99397.25;342205;28;1337;-69
2022/01/31 00:38:48;;;;;;;349.70;82.70;;;;;;;5.30;59.27;99386.88;343817;28;885;-69
2022/01/31 00:38:59;;;;;;;340.90;82.67;;;;;;;5.29;59.24;99395.53;343714;28;1537;-69
2022/01/31 00:39:09;;;;;;;338.83;81.37;;;;;;;5.28;59.22;99399.00;343877;28;1494;-68
2022/01/31 00:39:20;;;;;;;339.93;81.03;;;;;;;5.29;59.30;99395.53;341120;28;1326;-68
2022/01/31 00:39:34;;;;;;;343.30;81.73;;;;;;;5.30;59.18;99397.25;342237;28;1467;-68
2022/01/31 00:39:44;;;;;;;342.23;84.28;;;;;;;5.29;59.44;99405.91;342427;28;1408;-68
2022/01/31 00:39:54;;;;;;;342.17;83.13;;;;;;;5.29;59.33;99395.53;342284;28;1440;-68
2022/01/31 00:40:06;;;;;;;339.50;82.63;;;;;;;5.29;59.23;99396.38;342466;28;1189;-68
2022/01/31 00:40:17;;;;;;;340.05;84.22;;;;;;;5.28;59.28;99394.69;342008;28;1493;-68
2022/01/31 00:40:27;;;;;;;342.23;82.90;;;;;;;5.31;59.44;99399.81;339753;29;1469;-68
2022/01/31 00:40:41;;;;;;;344.13;82.27;;;;;;;5.31;59.42;99389.41;339768;29;831;-68
2022/01/31 00:40:52;;;;;;;345.65;80.55;;;;;;;5.29;59.15;99391.19;339234;29;2264;-68
2022/01/31 00:41:03;;;;;;;343.55;81.85;;;;;;;5.27;59.15;99397.31;340825;29;1520;-68
2022/01/31 00:41:13;;;;;;;341.55;81.45;;;;;;;5.27;59.10;99399.91;340863;28;1496;-68
2022/01/31 00:41:24;;;;;;;344.87;81.63;;;;;;;5.26;59.12;99396.44;342331;28;1289;-68
2022/01/31 00:41:34;;;;;;;346.10;81.20;;;;;;;5.27;59.05;99398.16;341126;29;1240;-68
2022/01/31 00:41:45;;;;;;;346.08;79.68;;;;;;;5.28;59.21;99397.28;343142;28;1507;-68
2022/01/31 00:41:55;;;;;;;343.77;81.07;;;;;;;5.30;59.15;99398.09;343775;28;1537;-68
2022/01/31 00:42:07;;;;;;;339.55;80.88;;;;;;;5.31;58.98;99398.94;342366;28;1297;-68
2022/01/31 00:42:19;;;;;;;338.17;83.47;;;;;;;5.29;59.06;99390.34;341065;28;1421;-69
2022/01/31 00:42:31;;;;;;;337.33;83.32;;;;;;;5.31;59.04;99396.34;341871;28;1539;-69
2022/01/31 00:42:41;;;;;;;345.08;87.50;;;;;;;5.29;59.11;99400.72;341079;29;1492;-69
2022/01/31 00:42:52;;;;;;;356.23;92.23;;;;;;;5.29;59.13;99400.72;340809;28;1326;-69
2022/01/31 00:43:02;;;;;;;361.85;93.03;;;;;;;5.29;58.99;99395.53;338324;29;1662;-69
2022/01/31 00:43:14;;;;;;;357.23;88.50;;;;;;;5.28;59.38;99392.09;338923;29;1488;-69
2022/01/31 00:43:25;;;;;;;350.60;84.55;;;;;;;5.28;59.43;99405.06;338688;29;1467;-69
2022/01/31 00:43:37;;;;;;;349.02;84.22;;;;;;;5.30;59.03;99392.06;342491;28;906;-69
2022/01/31 00:43:58;;;;;;;349.88;85.07;;;;;;;5.29;58.69;99395.53;342418;28;1598;-69
2022/01/31 00:44:26;;;;;;;350.23;81.95;;;;;;;5.28;59.14;99383.44;342317;28;1297;-67
2022/01/31 00:44:53;;;;;;;343.48;81.07;;;;;;;5.28;59.25;99388.63;342482;28;921;-68
2022/01/31 00:45:18;;;;;;;344.08;82.95;;;;;;;5.26;59.05;99387.81;340990;29;973;-68
2022/01/31 00:45:30;;;;;;;340.02;81.82;;;;;;;5.24;58.76;99399.97;342107;28;1467;-69
2022/01/31 00:45:58;;;;;;;343.00;83.00;;;;;;;5.25;59.38;99391.31;340409;29;1432;-69
2022/01/31 00:46:12;;;;;;;344.00;83.03;;;;;;;5.26;59.22;99391.25;341357;28;1252;-69
2022/01/31 00:46:27;;;;;;;349.17;84.90;;;;;;;5.26;59.26;99380.88;342395;28;928;-69
2022/01/31 00:46:41;;;;;;;346.63;84.05;;;;;;;5.26;58.93;99386.06;342233;28;1364;-69
2022/01/31 00:47:05;;;;;;;346.83;82.93;;;;;;;5.28;58.92;99383.44;341111;28;2200;-69
2022/01/31 00:47:24;;;;;;;341.83;82.10;;;;;;;5.28;58.94;99389.50;342297;28;1348;-69
2022/01/31 00:47:37;;;;;;;342.77;84.63;;;;;;;5.31;58.69;99396.34;342436;28;893;-69
2022/01/31 00:47:58;;;;;;;341.73;84.53;;;;;;;5.30;58.79;99398.09;342821;28;1614;-69
2022/01/31 00:48:15;;;;;;;340.15;81.57;;;;;;;5.26;58.90;99391.25;341077;28;1435;-68
2022/01/31 00:48:27;;;;;;;344.58;82.60;;;;;;;5.26;58.82;99393.00;342351;28;1487;-69
2022/01/31 00:48:44;;;;;;;343.15;81.90;;;;;;;5.25;58.86;99393.91;339679;29;1235;-68
2022/01/31 00:48:55;;;;;;;340.95;80.22;;;;;;;5.22;58.97;99393.97;338540;29;1559;-68
2022/01/31 00:49:11;;;;;;;341.40;80.83;;;;;;;5.23;58.98;99390.47;342492;28;778;-68
2022/01/31 00:49:48;;;;;;;341.05;82.55;;;;;;;5.23;58.94;99393.94;342380;28;1344;-68
2022/01/31 00:50:09;;;;;;;347.80;83.32;;;;;;;5.24;58.53;99393.03;342286;28;1435;-68
2022/01/31 00:50:20;;;;;;;350.27;85.53;;;;;;;5.26;59.06;99399.06;342420;28;909;-68
2022/01/31 00:50:37;;;;;;;343.63;85.63;;;;;;;5.26;58.86;99395.59;342773;28;1476;-68
2022/01/31 00:50:47;;;;;;;341.52;84.95;;;;;;;5.23;58.83;99398.25;344602;28;1578;-69
2022/01/31 00:50:58;;;;;;;340.42;83.47;;;;;;;5.23;58.95;99393.06;344095;28;1548;-69
2022/01/31 00:51:09;;;;;;;342.10;83.03;;;;;;;5.24;59.15;99397.38;343819;28;1209;-69
2022/01/31 00:51:19;;;;;;;346.73;83.47;;;;;;;5.23;58.81;99399.13;344784;28;1238;-68
2022/01/31 00:51:30;;;;;;;350.97;83.67;;;;;;;5.25;58.82;99393.91;342507;28;1463;-68
2022/01/31 00:51:40;;;;;;;350.20;81.80;;;;;;;5.24;58.75;99403.41;341798;28;1519;-68
2022/01/31 00:51:51;;;;;;;357.10;84.97;;;;;;;5.23;59.05;99398.25;342150;28;841;-68
2022/01/31 00:52:01;;;;;;;351.93;84.47;;;;;;;5.20;58.82;99385.41;340795;28;2604;-68
2022/01/31 00:52:12;;;;;;;350.83;84.17;;;;;;;5.21;58.86;99394.84;338261;29;1334;-68
2022/01/31 00:52:22;;;;;;;343.30;82.07;;;;;;;5.21;58.66;99393.09;341045;29;882;-68
2022/01/31 00:52:35;;;;;;;343.80;83.07;;;;;;;5.24;58.83;99392.19;342161;28;1594;-70
2022/01/31 00:52:45;;;;;;;348.75;87.68;;;;;;;5.24;58.70;99397.38;340894;28;1578;-69
2022/01/31 00:52:56;;;;;;;347.80;84.60;;;;;;;5.22;58.88;99393.97;341521;28;1253;-69
2022/01/31 00:53:07;;;;;;;337.63;87.90;;;;;;;5.20;58.94;99388.81;339730;29;1019;-68
2022/01/31 00:53:17;;;;;;;334.33;96.45;;;;;;;5.23;58.76;99400.84;341977;28;1565;-68
2022/01/31 00:53:27;;;;;;;331.40;107.63;;;;;;;5.22;58.78;99394.81;344244;28;1550;-68
2022/01/31 00:53:38;;;;;;;331.70;107.68;;;;;;;5.20;58.90;99398.38;343920;28;1274;-69
2022/01/31 00:53:48;;;;;;;324.67;104.97;;;;;;;5.18;58.83;99394.94;343502;28;1586;-69
2022/01/31 00:53:58;;;;;;;325.50;103.78;;;;;;;5.20;58.87;99390.59;344149;28;1271;-69
2022/01/31 00:54:09;;;;;;;327.03;101.83;;;;;;;5.21;59.04;99395.69;344982;28;1553;-69
2022/01/31 00:54:19;;;;;;;328.00;103.30;;;;;;;5.21;59.13;99392.25;343602;28;1325;-69
2022/01/31 00:54:30;;;;;;;323.10;98.83;;;;;;;5.20;58.91;99395.78;342936;28;1467;-69
2022/01/31 00:54:40;;;;;;;321.90;98.95;;;;;;;5.19;59.01;99386.28;342308;28;1464;-69
2022/01/31 00:54:51;;;;;;;341.37;104.43;;;;;;;5.20;58.89;99385.41;343842;28;809;-69
2022/01/31 00:55:01;;;;;;;359.52;109.60;;;;;;;5.18;59.26;99387.16;342367;28;1579;-69
2022/01/31 00:55:12;;;;;;;362.07;112.73;;;;;;;5.19;58.67;99391.47;343349;28;1344;-68
2022/01/31 00:55:23;;;;;;;349.10;110.90;;;;;;;5.21;59.16;99392.25;341118;29;928;-68